Estación Meteorológica Peña el Pijo (Robertgarden) [ 02/03/23 02:46:13 CET ]

Fecha Hora Presion(HPa) Temp (°C) Humedad % Rocio (°C) Viento ( m/s) Direccion Lluvia 1Hora(mm) Lluvia 24H(mm) LLuvia Total(mm)
2010-Jul-27 01:01:16 1014.100 18.9 75 14.3         130.53
2010-Jul-27 02:01:11 1014.200 17.3 78 13.4         130.53
2010-Jul-27 03:10:05 1014.200 15.8 80 12.4         130.53
2010-Jul-27 04:03:13 1014.100 14.9 83 12.0         130.53
2010-Jul-27 05:01:12 1013.900 13.9 85 11.4         130.53
2010-Jul-27 06:01:14 1014.100 13.5 87 11.4         130.53
2010-Jul-27 07:01:10 1013.900 13.3 88 11.3         130.53
2010-Jul-27 08:01:13 1014.200 14.2 89 12.4         130.53
2010-Jul-27 09:01:14 1014.500 19.6 77 15.5         130.53
2010-Jul-27 10:01:12 1014.300 24.3 55 14.7         130.53
2010-Jul-27 11:01:13 1014.200 28.2 40 13.4         130.53
2010-Jul-27 12:01:14 1014.300 31.1 35 13.7         130.53
2010-Jul-27 13:01:12 1014.200 33.2 31 13.8         130.53
2010-Jul-27 14:01:13 1014.100 34.8 28 13.5         130.53
2010-Jul-27 15:01:12 1013.800 34.2 26 11.7         130.53
2010-Jul-27 16:01:15 1013.700 32.9 31 13.6 0.9 NNE     130.53
2010-Jul-27 17:01:11 1013.500 32.5 29 12.1 0.4 E     130.53
2010-Jul-27 18:01:18 1013.400 31.6 31 12.4         130.53
2010-Jul-27 19:01:13 1013.600 30.6 34 12.9         130.53
2010-Jul-27 20:01:12 1013.700 28.4 40 13.6         130.53
2010-Jul-27 21:01:11 1014.200 25.6 48 13.8         130.53
2010-Jul-27 22:01:17 1014.900 23.5 54 13.6         130.53
2010-Jul-27 23:01:10 1015.800 22.1 59 13.7         130.53

Temperatura Máxima:34°    Temperatura Mínima:13°
Presión Máxima:1015.800 Hpa    Presión Mínima:1013.400 Hpa


Volver